sensor_id;sensor_type;location;lat;lon;timestamp;P1;durP1;ratioP1;P2;durP2;ratioP2
15869;SDS011;63464;51.344;-1.634;2022-09-30T00:01:56;15.30;;;14.30;;
15869;SDS011;63464;51.344;-1.634;2022-09-30T00:04:26;15.53;;;14.47;;
15869;SDS011;63464;51.344;-1.634;2022-09-30T00:06:55;16.97;;;15.70;;
15869;SDS011;63464;51.344;-1.634;2022-09-30T00:09:25;16.17;;;14.97;;
15869;SDS011;63464;51.344;-1.634;2022-09-30T00:11:54;16.07;;;14.97;;
15869;SDS011;63464;51.344;-1.634;2022-09-30T00:14:24;16.20;;;14.90;;
15869;SDS011;63464;51.344;-1.634;2022-09-30T00:16:54;15.23;;;14.10;;
15869;SDS011;63464;51.344;-1.634;2022-09-30T00:19:24;15.37;;;14.27;;
15869;SDS011;63464;51.344;-1.634;2022-09-30T00:21:53;15.13;;;14.03;;
15869;SDS011;63464;51.344;-1.634;2022-09-30T00:24:22;15.83;;;14.73;;
15869;SDS011;63464;51.344;-1.634;2022-09-30T00:26:54;16.10;;;14.90;;
15869;SDS011;63464;51.344;-1.634;2022-09-30T00:29:23;15.20;;;14.27;;
15869;SDS011;63464;51.344;-1.634;2022-09-30T00:31:59;16.17;;;14.87;;
15869;SDS011;63464;51.344;-1.634;2022-09-30T00:34:27;14.73;;;13.70;;
15869;SDS011;63464;51.344;-1.634;2022-09-30T00:36:57;16.13;;;15.00;;
15869;SDS011;63464;51.344;-1.634;2022-09-30T00:39:28;15.50;;;14.40;;
15869;SDS011;63464;51.344;-1.634;2022-09-30T00:41:58;15.23;;;14.13;;
15869;SDS011;63464;51.344;-1.634;2022-09-30T00:47:21;15.30;;;14.30;;
15869;SDS011;63464;51.344;-1.634;2022-09-30T00:49:50;16.07;;;14.97;;
15869;SDS011;63464;51.344;-1.634;2022-09-30T00:52:21;15.97;;;14.77;;
15869;SDS011;63464;51.344;-1.634;2022-09-30T00:54:49;15.57;;;14.50;;
15869;SDS011;63464;51.344;-1.634;2022-09-30T00:57:19;15.63;;;14.53;;
15869;SDS011;63464;51.344;-1.634;2022-09-30T00:59:50;16.57;;;15.27;;
15869;SDS011;63464;51.344;-1.634;2022-09-30T01:02:20;16.23;;;14.83;;
15869;SDS011;63464;51.344;-1.634;2022-09-30T01:04:50;15.73;;;14.63;;
15869;SDS011;63464;51.344;-1.634;2022-09-30T01:07:22;15.90;;;14.70;;
15869;SDS011;63464;51.344;-1.634;2022-09-30T01:09:54;16.50;;;15.30;;
15869;SDS011;63464;51.344;-1.634;2022-09-30T01:12:25;15.67;;;14.60;;
15869;SDS011;63464;51.344;-1.634;2022-09-30T01:14:55;16.30;;;15.17;;
15869;SDS011;63464;51.344;-1.634;2022-09-30T01:17:28;16.67;;;15.40;;
15869;SDS011;63464;51.344;-1.634;2022-09-30T01:20:12;15.83;;;14.73;;
15869;SDS011;63464;51.344;-1.634;2022-09-30T01:22:43;17.13;;;15.83;;
15869;SDS011;63464;51.344;-1.634;2022-09-30T01:25:26;16.77;;;15.57;;
15869;SDS011;63464;51.344;-1.634;2022-09-30T01:28:05;17.80;;;16.40;;
15869;SDS011;63464;51.344;-1.634;2022-09-30T01:30:47;16.60;;;15.40;;
15869;SDS011;63464;51.344;-1.634;2022-09-30T01:33:18;16.33;;;15.17;;
15869;SDS011;63464;51.344;-1.634;2022-09-30T01:35:54;16.70;;;15.50;;
15869;SDS011;63464;51.344;-1.634;2022-09-30T01:38:25;16.87;;;15.67;;
15869;SDS011;63464;51.344;-1.634;2022-09-30T01:40:58;17.13;;;15.83;;
15869;SDS011;63464;51.344;-1.634;2022-09-30T01:43:28;16.67;;;15.40;;
15869;SDS011;63464;51.344;-1.634;2022-09-30T01:45:59;16.73;;;15.53;;
15869;SDS011;63464;51.344;-1.634;2022-09-30T01:48:33;16.33;;;15.17;;
15869;SDS011;63464;51.344;-1.634;2022-09-30T01:51:04;15.93;;;14.73;;
15869;SDS011;63464;51.344;-1.634;2022-09-30T01:53:36;17.40;;;16.00;;
15869;SDS011;63464;51.344;-1.634;2022-09-30T01:56:07;16.30;;;15.17;;
15869;SDS011;63464;51.344;-1.634;2022-09-30T01:58:37;17.37;;;15.97;;
15869;SDS011;63464;51.344;-1.634;2022-09-30T02:01:07;17.43;;;16.03;;
15869;SDS011;63464;51.344;-1.634;2022-09-30T02:03:37;16.70;;;15.40;;
15869;SDS011;63464;51.344;-1.634;2022-09-30T02:06:09;17.03;;;15.73;;
15869;SDS011;63464;51.344;-1.634;2022-09-30T02:08:40;16.93;;;15.73;;
15869;SDS011;63464;51.344;-1.634;2022-09-30T02:11:11;16.47;;;15.27;;
15869;SDS011;63464;51.344;-1.634;2022-09-30T02:13:42;16.47;;;15.27;;
15869;SDS011;63464;51.344;-1.634;2022-09-30T02:16:15;16.83;;;15.43;;
15869;SDS011;63464;51.344;-1.634;2022-09-30T02:18:45;16.50;;;15.23;;
15869;SDS011;63464;51.344;-1.634;2022-09-30T02:21:17;17.10;;;15.80;;
15869;SDS011;63464;51.344;-1.634;2022-09-30T02:23:48;16.50;;;15.37;;
15869;SDS011;63464;51.344;-1.634;2022-09-30T02:26:19;16.43;;;15.23;;
15869;SDS011;63464;51.344;-1.634;2022-09-30T02:28:50;15.43;;;14.33;;
15869;SDS011;63464;51.344;-1.634;2022-09-30T02:31:20;16.47;;;15.27;;
15869;SDS011;63464;51.344;-1.634;2022-09-30T02:33:51;16.73;;;15.43;;
15869;SDS011;63464;51.344;-1.634;2022-09-30T02:36:25;16.10;;;14.97;;
15869;SDS011;63464;51.344;-1.634;2022-09-30T02:38:54;16.30;;;15.20;;
15869;SDS011;63464;51.344;-1.634;2022-09-30T02:41:25;15.80;;;14.70;;
15869;SDS011;63464;51.344;-1.634;2022-09-30T02:43:57;15.83;;;14.73;;
15869;SDS011;63464;51.344;-1.634;2022-09-30T02:46:33;15.33;;;14.30;;
15869;SDS011;63464;51.344;-1.634;2022-09-30T02:49:01;16.07;;;14.87;;
15869;SDS011;63464;51.344;-1.634;2022-09-30T02:51:34;15.00;;;13.90;;
15869;SDS011;63464;51.344;-1.634;2022-09-30T02:54:07;16.00;;;14.77;;
15869;SDS011;63464;51.344;-1.634;2022-09-30T02:56:38;16.00;;;14.80;;
15869;SDS011;63464;51.344;-1.634;2022-09-30T02:59:06;14.77;;;13.77;;
15869;SDS011;63464;51.344;-1.634;2022-09-30T03:01:36;15.50;;;14.37;;
15869;SDS011;63464;51.344;-1.634;2022-09-30T03:04:07;14.53;;;13.53;;
15869;SDS011;63464;51.344;-1.634;2022-09-30T03:06:37;14.93;;;13.93;;
15869;SDS011;63464;51.344;-1.634;2022-09-30T03:09:09;15.50;;;14.30;;
15869;SDS011;63464;51.344;-1.634;2022-09-30T03:11:41;14.93;;;13.70;;
15869;SDS011;63464;51.344;-1.634;2022-09-30T03:14:16;14.90;;;13.73;;
15869;SDS011;63464;51.344;-1.634;2022-09-30T03:16:57;14.23;;;13.13;;
15869;SDS011;63464;51.344;-1.634;2022-09-30T03:19:30;16.00;;;14.80;;
15869;SDS011;63464;51.344;-1.634;2022-09-30T03:22:05;14.77;;;13.77;;
15869;SDS011;63464;51.344;-1.634;2022-09-30T03:24:40;16.20;;;14.80;;
15869;SDS011;63464;51.344;-1.634;2022-09-30T03:27:12;15.70;;;14.50;;
15869;SDS011;63464;51.344;-1.634;2022-09-30T03:29:45;16.37;;;14.97;;
15869;SDS011;63464;51.344;-1.634;2022-09-30T03:32:18;16.20;;;14.97;;
15869;SDS011;63464;51.344;-1.634;2022-09-30T03:34:58;16.83;;;15.47;;
15869;SDS011;63464;51.344;-1.634;2022-09-30T03:37:23;17.20;;;15.80;;
15869;SDS011;63464;51.344;-1.634;2022-09-30T03:39:53;17.53;;;16.03;;
15869;SDS011;63464;51.344;-1.634;2022-09-30T03:42:25;17.00;;;15.70;;
15869;SDS011;63464;51.344;-1.634;2022-09-30T03:44:58;18.13;;;16.73;;
15869;SDS011;63464;51.344;-1.634;2022-09-30T03:47:29;16.73;;;15.50;;
15869;SDS011;63464;51.344;-1.634;2022-09-30T03:50:02;17.33;;;15.93;;
15869;SDS011;63464;51.344;-1.634;2022-09-30T03:52:34;16.77;;;15.57;;
15869;SDS011;63464;51.344;-1.634;2022-09-30T03:55:04;16.40;;;15.20;;
15869;SDS011;63464;51.344;-1.634;2022-09-30T03:57:36;16.20;;;14.90;;
15869;SDS011;63464;51.344;-1.634;2022-09-30T04:00:09;15.90;;;14.70;;
15869;SDS011;63464;51.344;-1.634;2022-09-30T04:02:38;17.10;;;15.90;;
15869;SDS011;63464;51.344;-1.634;2022-09-30T04:05:09;16.30;;;15.00;;
15869;SDS011;63464;51.344;-1.634;2022-09-30T04:07:38;17.90;;;16.47;;
15869;SDS011;63464;51.344;-1.634;2022-09-30T04:10:11;16.80;;;15.43;;
15869;SDS011;63464;51.344;-1.634;2022-09-30T04:12:41;16.77;;;15.27;;
15869;SDS011;63464;51.344;-1.634;2022-09-30T04:15:11;17.27;;;15.60;;
15869;SDS011;63464;51.344;-1.634;2022-09-30T04:17:42;17.23;;;16.00;;
15869;SDS011;63464;51.344;-1.634;2022-09-30T04:20:12;17.40;;;16.20;;
15869;SDS011;63464;51.344;-1.634;2022-09-30T04:22:41;17.20;;;15.90;;
15869;SDS011;63464;51.344;-1.634;2022-09-30T04:25:10;16.67;;;15.47;;
15869;SDS011;63464;51.344;-1.634;2022-09-30T04:27:39;17.73;;;16.07;;
15869;SDS011;63464;51.344;-1.634;2022-09-30T04:30:10;16.57;;;15.27;;
15869;SDS011;63464;51.344;-1.634;2022-09-30T04:32:41;16.10;;;15.00;;
15869;SDS011;63464;51.344;-1.634;2022-09-30T04:35:12;15.73;;;14.63;;
15869;SDS011;63464;51.344;-1.634;2022-09-30T04:37:43;16.03;;;14.93;;
15869;SDS011;63464;51.344;-1.634;2022-09-30T04:40:13;15.57;;;14.43;;
15869;SDS011;63464;51.344;-1.634;2022-09-30T04:42:43;15.37;;;14.27;;
15869;SDS011;63464;51.344;-1.634;2022-09-30T04:45:13;15.00;;;13.90;;
15869;SDS011;63464;51.344;-1.634;2022-09-30T04:47:43;16.17;;;14.77;;
15869;SDS011;63464;51.344;-1.634;2022-09-30T04:50:14;15.90;;;14.57;;
15869;SDS011;63464;51.344;-1.634;2022-09-30T04:52:43;16.47;;;15.17;;
15869;SDS011;63464;51.344;-1.634;2022-09-30T04:55:15;17.20;;;15.87;;
15869;SDS011;63464;51.344;-1.634;2022-09-30T04:57:45;16.20;;;14.97;;
15869;SDS011;63464;51.344;-1.634;2022-09-30T05:00:14;15.50;;;14.30;;
15869;SDS011;63464;51.344;-1.634;2022-09-30T05:02:44;16.60;;;15.30;;
15869;SDS011;63464;51.344;-1.634;2022-09-30T05:05:15;16.80;;;15.30;;
15869;SDS011;63464;51.344;-1.634;2022-09-30T05:07:46;16.47;;;15.27;;
15869;SDS011;63464;51.344;-1.634;2022-09-30T05:10:15;15.93;;;14.63;;
15869;SDS011;63464;51.344;-1.634;2022-09-30T05:12:44;16.57;;;15.27;;
15869;SDS011;63464;51.344;-1.634;2022-09-30T05:15:16;16.37;;;15.17;;
15869;SDS011;63464;51.344;-1.634;2022-09-30T05:17:50;16.83;;;15.43;;
15869;SDS011;63464;51.344;-1.634;2022-09-30T05:20:19;15.53;;;14.33;;
15869;SDS011;63464;51.344;-1.634;2022-09-30T05:22:53;16.40;;;15.00;;
15869;SDS011;63464;51.344;-1.634;2022-09-30T05:25:22;16.07;;;14.87;;
15869;SDS011;63464;51.344;-1.634;2022-09-30T05:27:51;16.80;;;15.57;;
15869;SDS011;63464;51.344;-1.634;2022-09-30T05:30:21;16.50;;;15.30;;
15869;SDS011;63464;51.344;-1.634;2022-09-30T05:32:51;16.43;;;15.23;;
15869;SDS011;63464;51.344;-1.634;2022-09-30T05:35:20;16.50;;;15.17;;
15869;SDS011;63464;51.344;-1.634;2022-09-30T05:37:49;16.83;;;15.63;;
15869;SDS011;63464;51.344;-1.634;2022-09-30T05:40:20;17.07;;;15.87;;
15869;SDS011;63464;51.344;-1.634;2022-09-30T05:42:50;16.03;;;14.83;;
15869;SDS011;63464;51.344;-1.634;2022-09-30T05:45:21;16.47;;;15.30;;
15869;SDS011;63464;51.344;-1.634;2022-09-30T05:47:50;17.23;;;15.93;;
15869;SDS011;63464;51.344;-1.634;2022-09-30T05:50:20;16.07;;;14.90;;
15869;SDS011;63464;51.344;-1.634;2022-09-30T05:52:50;17.07;;;15.70;;
15869;SDS011;63464;51.344;-1.634;2022-09-30T05:55:19;16.30;;;15.10;;
15869;SDS011;63464;51.344;-1.634;2022-09-30T05:57:51;16.97;;;15.57;;
15869;SDS011;63464;51.344;-1.634;2022-09-30T06:00:20;17.07;;;15.67;;
15869;SDS011;63464;51.344;-1.634;2022-09-30T06:02:53;17.97;;;16.50;;
15869;SDS011;63464;51.344;-1.634;2022-09-30T06:05:22;17.77;;;16.27;;
15869;SDS011;63464;51.344;-1.634;2022-09-30T06:07:53;17.13;;;15.93;;
15869;SDS011;63464;51.344;-1.634;2022-09-30T06:10:23;16.33;;;15.23;;
15869;SDS011;63464;51.344;-1.634;2022-09-30T06:12:53;17.33;;;15.93;;
15869;SDS011;63464;51.344;-1.634;2022-09-30T06:15:25;17.00;;;15.63;;
15869;SDS011;63464;51.344;-1.634;2022-09-30T06:17:54;16.80;;;15.70;;
15869;SDS011;63464;51.344;-1.634;2022-09-30T06:20:25;16.40;;;15.20;;
15869;SDS011;63464;51.344;-1.634;2022-09-30T06:22:54;17.17;;;15.97;;
15869;SDS011;63464;51.344;-1.634;2022-09-30T06:25:24;17.10;;;15.80;;
15869;SDS011;63464;51.344;-1.634;2022-09-30T06:27:54;17.00;;;15.80;;
15869;SDS011;63464;51.344;-1.634;2022-09-30T06:30:24;17.03;;;15.80;;
15869;SDS011;63464;51.344;-1.634;2022-09-30T06:32:55;15.97;;;14.97;;
15869;SDS011;63464;51.344;-1.634;2022-09-30T06:35:27;16.30;;;15.10;;
15869;SDS011;63464;51.344;-1.634;2022-09-30T06:37:56;16.27;;;15.00;;
15869;SDS011;63464;51.344;-1.634;2022-09-30T06:40:25;15.50;;;14.50;;
15869;SDS011;63464;51.344;-1.634;2022-09-30T06:42:57;15.23;;;14.33;;
15869;SDS011;63464;51.344;-1.634;2022-09-30T06:45:27;14.90;;;13.60;;
15869;SDS011;63464;51.344;-1.634;2022-09-30T06:47:57;14.33;;;13.50;;
15869;SDS011;63464;51.344;-1.634;2022-09-30T06:50:28;16.50;;;14.80;;
15869;SDS011;63464;51.344;-1.634;2022-09-30T06:52:58;15.00;;;14.10;;
15869;SDS011;63464;51.344;-1.634;2022-09-30T06:55:29;13.97;;;13.07;;
15869;SDS011;63464;51.344;-1.634;2022-09-30T06:58:01;14.17;;;13.27;;
15869;SDS011;63464;51.344;-1.634;2022-09-30T07:00:31;15.50;;;14.40;;
15869;SDS011;63464;51.344;-1.634;2022-09-30T07:03:00;16.20;;;14.60;;
15869;SDS011;63464;51.344;-1.634;2022-09-30T07:05:33;14.37;;;13.47;;
15869;SDS011;63464;51.344;-1.634;2022-09-30T07:08:03;15.20;;;14.17;;
15869;SDS011;63464;51.344;-1.634;2022-09-30T07:10:32;15.50;;;14.27;;
15869;SDS011;63464;51.344;-1.634;2022-09-30T07:13:02;15.53;;;14.43;;
15869;SDS011;63464;51.344;-1.634;2022-09-30T07:15:32;15.80;;;14.70;;
15869;SDS011;63464;51.344;-1.634;2022-09-30T07:18:01;15.40;;;14.40;;
15869;SDS011;63464;51.344;-1.634;2022-09-30T07:20:31;15.03;;;14.03;;
15869;SDS011;63464;51.344;-1.634;2022-09-30T07:23:01;14.60;;;13.50;;
15869;SDS011;63464;51.344;-1.634;2022-09-30T07:25:34;14.40;;;13.40;;
15869;SDS011;63464;51.344;-1.634;2022-09-30T07:28:04;14.30;;;13.30;;
15869;SDS011;63464;51.344;-1.634;2022-09-30T07:30:34;15.00;;;14.00;;
15869;SDS011;63464;51.344;-1.634;2022-09-30T07:33:03;14.97;;;14.00;;
15869;SDS011;63464;51.344;-1.634;2022-09-30T07:35:34;15.77;;;14.67;;
15869;SDS011;63464;51.344;-1.634;2022-09-30T07:38:03;15.17;;;14.07;;
15869;SDS011;63464;51.344;-1.634;2022-09-30T07:40:33;16.00;;;15.00;;
15869;SDS011;63464;51.344;-1.634;2022-09-30T07:43:03;15.23;;;14.20;;
15869;SDS011;63464;51.344;-1.634;2022-09-30T07:45:35;15.47;;;14.37;;
15869;SDS011;63464;51.344;-1.634;2022-09-30T07:48:05;16.27;;;14.87;;
15869;SDS011;63464;51.344;-1.634;2022-09-30T07:50:36;16.50;;;15.30;;
15869;SDS011;63464;51.344;-1.634;2022-09-30T07:53:07;16.50;;;15.37;;
15869;SDS011;63464;51.344;-1.634;2022-09-30T07:55:37;16.53;;;15.33;;
15869;SDS011;63464;51.344;-1.634;2022-09-30T07:58:07;16.67;;;15.47;;
15869;SDS011;63464;51.344;-1.634;2022-09-30T08:00:38;17.73;;;16.23;;
15869;SDS011;63464;51.344;-1.634;2022-09-30T08:06:07;17.63;;;16.23;;
15869;SDS011;63464;51.344;-1.634;2022-09-30T08:08:36;17.90;;;16.53;;
15869;SDS011;63464;51.344;-1.634;2022-09-30T08:11:07;17.93;;;16.63;;
15869;SDS011;63464;51.344;-1.634;2022-09-30T08:13:37;18.17;;;16.77;;
15869;SDS011;63464;51.344;-1.634;2022-09-30T08:16:06;18.03;;;16.63;;
15869;SDS011;63464;51.344;-1.634;2022-09-30T08:18:35;18.20;;;16.70;;
15869;SDS011;63464;51.344;-1.634;2022-09-30T08:21:04;18.53;;;17.03;;
15869;SDS011;63464;51.344;-1.634;2022-09-30T08:23:33;19.40;;;17.73;;
15869;SDS011;63464;51.344;-1.634;2022-09-30T08:26:04;18.13;;;16.73;;
15869;SDS011;63464;51.344;-1.634;2022-09-30T08:28:33;18.63;;;17.07;;
15869;SDS011;63464;51.344;-1.634;2022-09-30T08:31:06;18.93;;;17.43;;
15869;SDS011;63464;51.344;-1.634;2022-09-30T08:33:35;18.43;;;16.93;;
15869;SDS011;63464;51.344;-1.634;2022-09-30T08:36:08;18.20;;;16.70;;
15869;SDS011;63464;51.344;-1.634;2022-09-30T08:38:39;18.93;;;17.43;;
15869;SDS011;63464;51.344;-1.634;2022-09-30T08:41:10;17.53;;;16.03;;
15869;SDS011;63464;51.344;-1.634;2022-09-30T08:43:41;18.03;;;16.63;;
15869;SDS011;63464;51.344;-1.634;2022-09-30T08:46:13;17.27;;;15.87;;
15869;SDS011;63464;51.344;-1.634;2022-09-30T08:48:44;17.57;;;16.07;;
15869;SDS011;63464;51.344;-1.634;2022-09-30T08:51:21;17.20;;;15.80;;
15869;SDS011;63464;51.344;-1.634;2022-09-30T08:53:53;17.30;;;15.87;;
15869;SDS011;63464;51.344;-1.634;2022-09-30T08:56:23;16.97;;;15.57;;
15869;SDS011;63464;51.344;-1.634;2022-09-30T08:58:54;17.33;;;15.83;;
15869;SDS011;63464;51.344;-1.634;2022-09-30T09:01:26;16.97;;;15.67;;
15869;SDS011;63464;51.344;-1.634;2022-09-30T09:03:56;17.03;;;15.63;;
15869;SDS011;63464;51.344;-1.634;2022-09-30T09:06:27;16.03;;;14.83;;
15869;SDS011;63464;51.344;-1.634;2022-09-30T09:33:28;17.67;;;16.37;;
15869;SDS011;63464;51.344;-1.634;2022-09-30T09:36:00;17.20;;;15.90;;
15869;SDS011;63464;51.344;-1.634;2022-09-30T09:38:33;17.50;;;16.20;;
15869;SDS011;63464;51.344;-1.634;2022-09-30T09:41:09;16.53;;;15.23;;
15869;SDS011;63464;51.344;-1.634;2022-09-30T09:43:40;16.30;;;15.20;;
15869;SDS011;63464;51.344;-1.634;2022-09-30T09:46:12;16.93;;;15.73;;
15869;SDS011;63464;51.344;-1.634;2022-09-30T09:48:42;16.07;;;14.83;;
15869;SDS011;63464;51.344;-1.634;2022-09-30T09:51:12;16.60;;;15.23;;
15869;SDS011;63464;51.344;-1.634;2022-09-30T09:53:43;16.17;;;15.07;;
15869;SDS011;63464;51.344;-1.634;2022-09-30T09:56:15;15.97;;;14.77;;
15869;SDS011;63464;51.344;-1.634;2022-09-30T09:59:06;16.30;;;15.00;;
15869;SDS011;63464;51.344;-1.634;2022-09-30T10:01:36;15.57;;;14.47;;
15869;SDS011;63464;51.344;-1.634;2022-09-30T10:04:10;16.07;;;14.77;;
15869;SDS011;63464;51.344;-1.634;2022-09-30T10:06:46;15.83;;;14.70;;
15869;SDS011;63464;51.344;-1.634;2022-09-30T10:09:22;15.80;;;14.70;;
15869;SDS011;63464;51.344;-1.634;2022-09-30T10:11:52;15.67;;;14.53;;
15869;SDS011;63464;51.344;-1.634;2022-09-30T10:14:24;15.47;;;14.37;;
15869;SDS011;63464;51.344;-1.634;2022-09-30T10:16:55;15.73;;;14.63;;
15869;SDS011;63464;51.344;-1.634;2022-09-30T10:19:24;14.80;;;13.67;;
15869;SDS011;63464;51.344;-1.634;2022-09-30T10:21:54;15.33;;;14.13;;
15869;SDS011;63464;51.344;-1.634;2022-09-30T10:24:26;15.30;;;14.20;;
15869;SDS011;63464;51.344;-1.634;2022-09-30T10:26:56;15.33;;;14.23;;
15869;SDS011;63464;51.344;-1.634;2022-09-30T10:29:25;15.43;;;14.23;;
15869;SDS011;63464;51.344;-1.634;2022-09-30T10:31:54;14.30;;;13.30;;
15869;SDS011;63464;51.344;-1.634;2022-09-30T10:34:25;15.00;;;13.70;;
15869;SDS011;63464;51.344;-1.634;2022-09-30T10:36:54;14.20;;;13.27;;
15869;SDS011;63464;51.344;-1.634;2022-09-30T10:39:25;13.87;;;12.97;;
15869;SDS011;63464;51.344;-1.634;2022-09-30T10:42:00;13.83;;;12.83;;
15869;SDS011;63464;51.344;-1.634;2022-09-30T10:44:30;13.03;;;12.23;;
15869;SDS011;63464;51.344;-1.634;2022-09-30T10:47:00;13.70;;;12.90;;
15869;SDS011;63464;51.344;-1.634;2022-09-30T10:49:32;14.47;;;13.27;;
15869;SDS011;63464;51.344;-1.634;2022-09-30T10:52:01;13.03;;;12.13;;
15869;SDS011;63464;51.344;-1.634;2022-09-30T10:54:49;12.70;;;11.80;;
15869;SDS011;63464;51.344;-1.634;2022-09-30T10:57:20;12.93;;;11.93;;
15869;SDS011;63464;51.344;-1.634;2022-09-30T10:59:49;13.67;;;12.67;;
15869;SDS011;63464;51.344;-1.634;2022-09-30T11:02:24;12.93;;;12.00;;
15869;SDS011;63464;51.344;-1.634;2022-09-30T11:04:56;12.80;;;11.90;;
15869;SDS011;63464;51.344;-1.634;2022-09-30T11:07:27;13.33;;;12.40;;
15869;SDS011;63464;51.344;-1.634;2022-09-30T11:09:58;13.03;;;11.93;;
15869;SDS011;63464;51.344;-1.634;2022-09-30T11:12:29;12.90;;;11.93;;
15869;SDS011;63464;51.344;-1.634;2022-09-30T11:15:02;11.07;;;10.40;;
15869;SDS011;63464;51.344;-1.634;2022-09-30T11:17:35;11.77;;;10.97;;
15869;SDS011;63464;51.344;-1.634;2022-09-30T11:20:06;11.83;;;11.07;;
15869;SDS011;63464;51.344;-1.634;2022-09-30T11:22:38;11.43;;;10.63;;
15869;SDS011;63464;51.344;-1.634;2022-09-30T11:25:08;11.50;;;10.67;;
15869;SDS011;63464;51.344;-1.634;2022-09-30T11:27:41;11.03;;;10.33;;
15869;SDS011;63464;51.344;-1.634;2022-09-30T11:30:12;10.60;;;9.90;;
15869;SDS011;63464;51.344;-1.634;2022-09-30T11:32:49;10.30;;;9.70;;
15869;SDS011;63464;51.344;-1.634;2022-09-30T11:35:24;9.10;;;8.60;;
15869;SDS011;63464;51.344;-1.634;2022-09-30T11:38:00;9.97;;;9.37;;
15869;SDS011;63464;51.344;-1.634;2022-09-30T11:40:31;9.40;;;8.70;;
15869;SDS011;63464;51.344;-1.634;2022-09-30T11:43:02;10.77;;;10.00;;
15869;SDS011;63464;51.344;-1.634;2022-09-30T11:45:35;10.23;;;9.67;;
15869;SDS011;63464;51.344;-1.634;2022-09-30T11:48:09;10.73;;;10.00;;
15869;SDS011;63464;51.344;-1.634;2022-09-30T11:50:42;10.13;;;9.53;;
15869;SDS011;63464;51.344;-1.634;2022-09-30T11:53:15;10.33;;;9.63;;
15869;SDS011;63464;51.344;-1.634;2022-09-30T11:55:49;10.20;;;9.50;;
15869;SDS011;63464;51.344;-1.634;2022-09-30T11:58:19;10.10;;;9.43;;
15869;SDS011;63464;51.344;-1.634;2022-09-30T12:00:50;9.57;;;8.97;;
15869;SDS011;63464;51.344;-1.634;2022-09-30T12:03:21;9.97;;;9.30;;
15869;SDS011;63464;51.344;-1.634;2022-09-30T12:05:53;9.90;;;9.30;;
15869;SDS011;63464;51.344;-1.634;2022-09-30T12:08:26;10.07;;;9.30;;
15869;SDS011;63464;51.344;-1.634;2022-09-30T12:10:56;9.67;;;9.10;;
15869;SDS011;63464;51.344;-1.634;2022-09-30T12:13:28;9.53;;;9.03;;
15869;SDS011;63464;51.344;-1.634;2022-09-30T12:15:58;9.47;;;8.90;;
15869;SDS011;63464;51.344;-1.634;2022-09-30T12:18:28;9.57;;;8.87;;
15869;SDS011;63464;51.344;-1.634;2022-09-30T12:20:58;9.00;;;8.40;;
15869;SDS011;63464;51.344;-1.634;2022-09-30T12:23:29;8.97;;;8.37;;
15869;SDS011;63464;51.344;-1.634;2022-09-30T12:25:58;9.27;;;8.53;;
15869;SDS011;63464;51.344;-1.634;2022-09-30T12:28:30;9.10;;;8.50;;
15869;SDS011;63464;51.344;-1.634;2022-09-30T12:34:11;9.40;;;8.50;;
15869;SDS011;63464;51.344;-1.634;2022-09-30T12:36:50;8.33;;;7.80;;
15869;SDS011;63464;51.344;-1.634;2022-09-30T12:39:35;8.43;;;7.80;;
15869;SDS011;63464;51.344;-1.634;2022-09-30T12:42:11;9.00;;;8.27;;
15869;SDS011;63464;51.344;-1.634;2022-09-30T12:44:58;8.47;;;7.77;;
15869;SDS011;63464;51.344;-1.634;2022-09-30T12:47:36;9.20;;;8.40;;
15869;SDS011;63464;51.344;-1.634;2022-09-30T12:50:08;8.73;;;8.00;;
15869;SDS011;63464;51.344;-1.634;2022-09-30T12:52:37;9.30;;;8.43;;
15869;SDS011;63464;51.344;-1.634;2022-09-30T12:55:08;9.57;;;8.77;;
15869;SDS011;63464;51.344;-1.634;2022-09-30T12:57:38;9.40;;;8.60;;
15869;SDS011;63464;51.344;-1.634;2022-09-30T13:00:16;9.03;;;8.43;;
15869;SDS011;63464;51.344;-1.634;2022-09-30T13:02:46;9.23;;;8.20;;
15869;SDS011;63464;51.344;-1.634;2022-09-30T13:08:24;9.33;;;8.33;;
15869;SDS011;63464;51.344;-1.634;2022-09-30T13:10:56;8.90;;;8.13;;
15869;SDS011;63464;51.344;-1.634;2022-09-30T13:13:26;9.60;;;8.57;;
15869;SDS011;63464;51.344;-1.634;2022-09-30T13:15:57;9.50;;;8.53;;
15869;SDS011;63464;51.344;-1.634;2022-09-30T13:21:20;9.00;;;8.40;;
15869;SDS011;63464;51.344;-1.634;2022-09-30T13:23:51;9.00;;;8.20;;
15869;SDS011;63464;51.344;-1.634;2022-09-30T13:26:34;8.50;;;8.00;;
15869;SDS011;63464;51.344;-1.634;2022-09-30T13:32:04;8.23;;;7.50;;
15869;SDS011;63464;51.344;-1.634;2022-09-30T13:34:46;8.90;;;8.10;;
15869;SDS011;63464;51.344;-1.634;2022-09-30T13:37:04;9.70;;;8.77;;
15869;SDS011;63464;51.344;-1.634;2022-09-30T13:39:44;9.27;;;8.50;;
15869;SDS011;63464;51.344;-1.634;2022-09-30T13:42:16;8.60;;;7.87;;
15869;SDS011;63464;51.344;-1.634;2022-09-30T13:44:51;9.00;;;8.20;;
15869;SDS011;63464;51.344;-1.634;2022-09-30T13:47:17;8.57;;;7.97;;
15869;SDS011;63464;51.344;-1.634;2022-09-30T13:49:50;9.00;;;8.20;;
15869;SDS011;63464;51.344;-1.634;2022-09-30T13:52:22;8.37;;;7.77;;
15869;SDS011;63464;51.344;-1.634;2022-09-30T13:54:52;9.07;;;8.27;;
15869;SDS011;63464;51.344;-1.634;2022-09-30T13:57:26;7.90;;;7.30;;
15869;SDS011;63464;51.344;-1.634;2022-09-30T13:59:58;8.57;;;7.83;;
15869;SDS011;63464;51.344;-1.634;2022-09-30T14:02:34;7.73;;;7.00;;
15869;SDS011;63464;51.344;-1.634;2022-09-30T14:05:13;7.53;;;7.03;;
15869;SDS011;63464;51.344;-1.634;2022-09-30T14:07:45;8.43;;;7.73;;
15869;SDS011;63464;51.344;-1.634;2022-09-30T14:10:19;7.77;;;7.03;;
15869;SDS011;63464;51.344;-1.634;2022-09-30T14:12:54;8.57;;;7.77;;
15869;SDS011;63464;51.344;-1.634;2022-09-30T14:15:33;9.67;;;7.90;;
15869;SDS011;63464;51.344;-1.634;2022-09-30T14:20:52;9.60;;;7.90;;
15869;SDS011;63464;51.344;-1.634;2022-09-30T14:23:23;8.97;;;8.07;;
15869;SDS011;63464;51.344;-1.634;2022-09-30T14:25:56;12.57;;;8.07;;
15869;SDS011;63464;51.344;-1.634;2022-09-30T14:28:27;10.00;;;7.93;;
15869;SDS011;63464;51.344;-1.634;2022-09-30T14:31:00;7.97;;;7.30;;
15869;SDS011;63464;51.344;-1.634;2022-09-30T14:33:35;8.40;;;7.50;;
15869;SDS011;63464;51.344;-1.634;2022-09-30T14:36:10;7.63;;;7.07;;
15869;SDS011;63464;51.344;-1.634;2022-09-30T14:38:40;7.67;;;7.00;;
15869;SDS011;63464;51.344;-1.634;2022-09-30T14:41:15;7.70;;;7.00;;
15869;SDS011;63464;51.344;-1.634;2022-09-30T14:43:44;7.80;;;7.17;;
15869;SDS011;63464;51.344;-1.634;2022-09-30T14:46:17;7.90;;;7.30;;
15869;SDS011;63464;51.344;-1.634;2022-09-30T14:48:46;7.93;;;7.27;;
15869;SDS011;63464;51.344;-1.634;2022-09-30T14:51:17;8.30;;;7.60;;
15869;SDS011;63464;51.344;-1.634;2022-09-30T14:53:55;7.93;;;7.07;;
15869;SDS011;63464;51.344;-1.634;2022-09-30T14:56:27;7.77;;;6.93;;
15869;SDS011;63464;51.344;-1.634;2022-09-30T14:58:58;8.73;;;7.17;;
15869;SDS011;63464;51.344;-1.634;2022-09-30T15:01:28;7.83;;;7.03;;
15869;SDS011;63464;51.344;-1.634;2022-09-30T15:04:01;7.10;;;6.60;;
15869;SDS011;63464;51.344;-1.634;2022-09-30T15:06:34;8.10;;;7.30;;
15869;SDS011;63464;51.344;-1.634;2022-09-30T15:09:04;7.90;;;7.30;;
15869;SDS011;63464;51.344;-1.634;2022-09-30T15:11:34;8.87;;;7.73;;
15869;SDS011;63464;51.344;-1.634;2022-09-30T15:14:05;9.80;;;7.83;;
15869;SDS011;63464;51.344;-1.634;2022-09-30T15:16:42;9.93;;;7.63;;
15869;SDS011;63464;51.344;-1.634;2022-09-30T15:19:12;7.63;;;6.93;;
15869;SDS011;63464;51.344;-1.634;2022-09-30T15:21:43;7.80;;;7.00;;
15869;SDS011;63464;51.344;-1.634;2022-09-30T15:27:20;8.27;;;7.43;;